Time;durP1;ratioP1;P1;durP2;ratioP2;P2;SDS_P1;SDS_P2;PMS_P1;PMS_P2;Temp;Humidity;BMP_temperature;BMP_pressure;BME280_temperature;BME280_humidity;BME280_pressure;Samples;Min_cycle;Max_cycle;Signal;HPM_P1;HPM_P2
2021/11/24 00:00:44;;;;;;;18.93;8.60;;;;;;;;;;4970645;28;20031;-73
2021/11/24 00:03:09;;;;;;;17.33;9.10;;;;;;;;;;4969307;28;20031;-74
2021/11/24 00:05:35;;;;;;;17.17;8.57;;;;;;;;;;4969281;28;20038;-75
2021/11/24 00:08:00;;;;;;;19.43;9.80;;;;;;;;;;4970537;28;20027;-74
2021/11/24 00:10:29;;;;;;;15.47;8.00;;;;;;;;;;4969526;28;20030;-74
2021/11/24 00:12:55;;;;;;;19.63;10.03;;;;;;;;;;4968995;28;20475;-74
2021/11/24 00:15:21;;;;;;;23.77;9.13;;;;;;;;;;4969352;28;20029;-73
2021/11/24 00:17:46;;;;;;;18.77;9.80;;;;;;;;;;4970762;28;20117;-74
2021/11/24 00:20:12;;;;;;;19.97;11.43;;;;;;;;;;4970470;28;20035;-74
2021/11/24 00:22:38;;;;;;;22.40;9.93;;;;;;;;;;4969037;28;20026;-74
2021/11/24 00:25:04;;;;;;;25.83;9.37;;;;;;;;;;4969363;28;20040;-74
2021/11/24 00:27:30;;;;;;;21.70;9.13;;;;;;;;;;4969655;28;20081;-74
2021/11/24 00:29:55;;;;;;;17.30;10.27;;;;;;;;;;4970268;28;20438;-73
2021/11/24 00:32:21;;;;;;;19.13;10.00;;;;;;;;;;4972264;28;20447;-75
2021/11/24 00:34:47;;;;;;;23.30;10.03;;;;;;;;;;4972959;28;20403;-74
2021/11/24 00:37:12;;;;;;;18.83;9.63;;;;;;;;;;4974048;28;20113;-74
2021/11/24 00:39:38;;;;;;;18.07;9.50;;;;;;;;;;4974636;28;20050;-73
2021/11/24 00:42:05;;;;;;;21.97;9.10;;;;;;;;;;4973831;28;20505;-74
2021/11/24 00:44:31;;;;;;;19.23;9.40;;;;;;;;;;4972904;28;20054;-74
2021/11/24 00:46:56;;;;;;;19.87;8.97;;;;;;;;;;4973792;28;20110;-75
2021/11/24 00:49:22;;;;;;;19.03;10.57;;;;;;;;;;4972620;28;20494;-74
2021/11/24 00:51:47;;;;;;;19.80;9.43;;;;;;;;;;4972629;28;20211;-73
2021/11/24 00:54:13;;;;;;;24.73;10.07;;;;;;;;;;4972185;28;20026;-74
2021/11/24 00:56:39;;;;;;;17.93;9.87;;;;;;;;;;4973970;28;20031;-74
2021/11/24 00:59:05;;;;;;;19.33;9.60;;;;;;;;;;4972849;28;20027;-74
2021/11/24 01:01:31;;;;;;;22.03;8.93;;;;;;;;;;4973723;28;20053;-74
2021/11/24 01:03:56;;;;;;;22.83;9.93;;;;;;;;;;4972402;28;20499;-74
2021/11/24 01:06:24;;;;;;;21.17;8.73;;;;;;;;;;4972439;28;20034;-74
2021/11/24 01:08:49;;;;;;;20.73;10.17;;;;;;;;;;4972283;28;20130;-75
2021/11/24 01:11:15;;;;;;;26.40;10.40;;;;;;;;;;4972338;28;20037;-74
2021/11/24 01:13:42;;;;;;;21.87;10.73;;;;;;;;;;4973625;28;20455;-74
2021/11/24 01:16:07;;;;;;;22.23;10.50;;;;;;;;;;4971896;28;20507;-73
2021/11/24 01:18:33;;;;;;;23.57;10.33;;;;;;;;;;4972564;28;20054;-74
2021/11/24 01:20:59;;;;;;;23.40;10.00;;;;;;;;;;4972960;28;20031;-76
2021/11/24 01:23:24;;;;;;;18.30;9.83;;;;;;;;;;4974527;28;20467;-74
2021/11/24 01:25:50;;;;;;;21.97;9.67;;;;;;;;;;4988894;28;20030;-75
2021/11/24 01:28:16;;;;;;;28.57;9.80;;;;;;;;;;4973654;28;20563;-74
2021/11/24 01:30:41;;;;;;;22.87;9.63;;;;;;;;;;4973654;28;20429;-73
2021/11/24 01:33:07;;;;;;;22.17;9.93;;;;;;;;;;4973093;28;20051;-73
2021/11/24 01:35:33;;;;;;;20.13;9.87;;;;;;;;;;4973414;28;20034;-74
2021/11/24 01:37:59;;;;;;;20.57;9.50;;;;;;;;;;4973233;28;20173;-73
2021/11/24 01:40:24;;;;;;;20.47;9.83;;;;;;;;;;4972135;28;20094;-74
2021/11/24 01:42:50;;;;;;;20.37;9.37;;;;;;;;;;4971458;28;20026;-74
2021/11/24 01:45:18;;;;;;;18.10;8.80;;;;;;;;;;4971626;28;20027;-74
2021/11/24 01:47:45;;;;;;;21.43;9.60;;;;;;;;;;4971731;28;20050;-74
2021/11/24 01:50:11;;;;;;;17.70;8.83;;;;;;;;;;4971986;28;20026;-74
2021/11/24 01:52:37;;;;;;;19.30;9.07;;;;;;;;;;4973402;28;20113;-74
2021/11/24 01:55:05;;;;;;;20.90;9.40;;;;;;;;;;4972707;28;20487;-74
2021/11/24 01:57:31;;;;;;;19.03;10.00;;;;;;;;;;4971608;28;20034;-72
2021/11/24 01:59:58;;;;;;;20.47;9.63;;;;;;;;;;4972913;28;20031;-74
2021/11/24 02:02:26;;;;;;;18.97;9.27;;;;;;;;;;4971413;28;20162;-74
2021/11/24 02:04:52;;;;;;;20.93;9.43;;;;;;;;;;4955477;28;20039;-74
2021/11/24 02:07:20;;;;;;;23.63;9.83;;;;;;;;;;4971030;28;20589;-74
2021/11/24 02:09:46;;;;;;;18.67;8.83;;;;;;;;;;4972739;28;20027;-74
2021/11/24 02:12:13;;;;;;;19.17;9.90;;;;;;;;;;4970962;28;20026;-74
2021/11/24 02:14:41;;;;;;;20.27;9.97;;;;;;;;;;4971301;28;20023;-74
2021/11/24 02:17:07;;;;;;;23.33;10.07;;;;;;;;;;4972297;28;20495;-74
2021/11/24 02:19:34;;;;;;;20.30;9.00;;;;;;;;;;4972596;28;20041;-74
2021/11/24 02:22:00;;;;;;;20.87;10.27;;;;;;;;;;4970725;28;20034;-74
2021/11/24 02:24:30;;;;;;;22.03;9.73;;;;;;;;;;4972225;28;20031;-74
2021/11/24 02:26:56;;;;;;;16.33;8.50;;;;;;;;;;4972685;28;20034;-74
2021/11/24 02:29:22;;;;;;;21.57;10.60;;;;;;;;;;4972139;28;20041;-73
2021/11/24 02:31:50;;;;;;;18.07;9.13;;;;;;;;;;4954785;28;20145;-74
2021/11/24 02:34:16;;;;;;;20.13;9.83;;;;;;;;;;4954796;28;20034;-74
2021/11/24 02:36:42;;;;;;;19.57;9.13;;;;;;;;;;4971270;28;20089;-73
2021/11/24 02:39:09;;;;;;;24.57;9.33;;;;;;;;;;4970733;28;20030;-76
2021/11/24 02:41:36;;;;;;;19.77;9.30;;;;;;;;;;4970781;28;20700;-72
2021/11/24 02:44:27;;;;;;;23.43;9.50;;;;;;;;;;4970632;28;20062;-73
2021/11/24 02:46:55;;;;;;;19.13;9.10;;;;;;;;;;4972148;28;20037;-74
2021/11/24 02:49:21;;;;;;;20.83;9.33;;;;;;;;;;4970771;28;20037;-74
2021/11/24 02:51:47;;;;;;;23.13;10.40;;;;;;;;;;4972073;28;20030;-74
2021/11/24 02:54:14;;;;;;;21.87;10.13;;;;;;;;;;4971028;28;20022;-74
2021/11/24 02:56:40;;;;;;;16.97;9.07;;;;;;;;;;4971858;28;20034;-74
2021/11/24 02:59:08;;;;;;;16.93;9.10;;;;;;;;;;4972289;28;20019;-73
2021/11/24 03:01:34;;;;;;;17.97;9.27;;;;;;;;;;4970521;28;20216;-74
2021/11/24 03:03:59;;;;;;;21.10;9.83;;;;;;;;;;4971683;28;20395;-73
2021/11/24 03:06:25;;;;;;;19.53;10.17;;;;;;;;;;4970303;28;20019;-74
2021/11/24 03:08:50;;;;;;;18.77;9.27;;;;;;;;;;4971766;28;20483;-74
2021/11/24 03:11:16;;;;;;;22.73;10.27;;;;;;;;;;4971710;28;20071;-74
2021/11/24 03:13:42;;;;;;;21.77;8.73;;;;;;;;;;4971773;28;20027;-74
2021/11/24 03:16:07;;;;;;;21.73;10.10;;;;;;;;;;4971625;28;20026;-72
2021/11/24 03:18:33;;;;;;;19.37;9.30;;;;;;;;;;4971670;28;20027;-74
2021/11/24 03:20:59;;;;;;;17.90;8.63;;;;;;;;;;4971606;28;20117;-74
2021/11/24 03:23:25;;;;;;;18.80;8.77;;;;;;;;;;4969904;28;20097;-73
2021/11/24 03:25:50;;;;;;;17.93;8.60;;;;;;;;;;4971590;28;20026;-73
2021/11/24 03:28:16;;;;;;;17.50;9.17;;;;;;;;;;4969960;28;20550;-73
2021/11/24 03:30:41;;;;;;;22.50;9.33;;;;;;;;;;4970248;28;20065;-74
2021/11/24 03:33:07;;;;;;;16.37;8.83;;;;;;;;;;4969749;28;20047;-74
2021/11/24 03:35:34;;;;;;;19.20;8.93;;;;;;;;;;4970064;28;20122;-74
2021/11/24 03:38:00;;;;;;;21.53;10.17;;;;;;;;;;4971307;28;20031;-74
2021/11/24 03:40:29;;;;;;;21.90;9.57;;;;;;;;;;4969793;28;20026;-73
2021/11/24 03:42:55;;;;;;;22.50;9.60;;;;;;;;;;4971096;28;20031;-74
2021/11/24 03:45:25;;;;;;;20.47;9.97;;;;;;;;;;4969715;28;20207;-73
2021/11/24 03:47:52;;;;;;;17.73;9.83;;;;;;;;;;4969891;28;20479;-74
2021/11/24 03:50:18;;;;;;;22.40;10.13;;;;;;;;;;4969801;28;20383;-74
2021/11/24 03:52:44;;;;;;;19.80;9.63;;;;;;;;;;4969888;28;20042;-73
2021/11/24 03:55:11;;;;;;;18.93;9.23;;;;;;;;;;4969657;28;20131;-75
2021/11/24 03:57:37;;;;;;;20.87;9.33;;;;;;;;;;4969747;28;20039;-74
2021/11/24 04:00:05;;;;;;;24.90;9.70;;;;;;;;;;4970119;28;20084;-74
2021/11/24 04:02:31;;;;;;;21.93;10.07;;;;;;;;;;4971071;28;20475;-74
2021/11/24 04:04:57;;;;;;;18.67;9.83;;;;;;;;;;4972186;28;20107;-74
2021/11/24 04:07:22;;;;;;;17.83;9.40;;;;;;;;;;4974964;28;20506;-74
2021/11/24 04:09:49;;;;;;;23.53;9.90;;;;;;;;;;4974998;28;20023;-74
2021/11/24 04:12:14;;;;;;;19.27;10.07;;;;;;;;;;4973570;28;20387;-74
2021/11/24 04:14:40;;;;;;;23.07;10.40;;;;;;;;;;4974762;28;20030;-74
2021/11/24 04:17:05;;;;;;;22.03;9.90;;;;;;;;;;4974024;28;20098;-74
2021/11/24 04:19:31;;;;;;;19.50;9.70;;;;;;;;;;4974568;28;20395;-74
2021/11/24 04:21:56;;;;;;;21.93;10.43;;;;;;;;;;4973221;28;20026;-74
2021/11/24 04:24:25;;;;;;;21.60;9.73;;;;;;;;;;4974592;28;20026;-75
2021/11/24 04:26:51;;;;;;;21.57;10.47;;;;;;;;;;4973345;28;20114;-75
2021/11/24 04:29:16;;;;;;;23.80;11.53;;;;;;;;;;4974366;28;20027;-74
2021/11/24 04:31:42;;;;;;;23.03;10.77;;;;;;;;;;4972455;28;20034;-75
2021/11/24 04:34:07;;;;;;;20.50;10.67;;;;;;;;;;4972874;28;20042;-74
2021/11/24 04:36:33;;;;;;;18.00;9.90;;;;;;;;;;4974394;28;20033;-74
2021/11/24 04:38:58;;;;;;;20.00;11.10;;;;;;;;;;4974306;28;20031;-74
2021/11/24 04:41:24;;;;;;;24.73;10.13;;;;;;;;;;4972696;28;20542;-74
2021/11/24 04:43:49;;;;;;;22.43;11.50;;;;;;;;;;4974108;28;20047;-75
2021/11/24 04:46:16;;;;;;;27.07;10.83;;;;;;;;;;4972664;28;20483;-75
2021/11/24 04:48:42;;;;;;;22.27;11.00;;;;;;;;;;4972874;28;20049;-73
2021/11/24 04:51:09;;;;;;;29.73;13.73;;;;;;;;;;4973801;28;20030;-73
2021/11/24 04:53:35;;;;;;;22.80;11.13;;;;;;;;;;4972587;28;20027;-74
2021/11/24 04:56:01;;;;;;;24.33;11.87;;;;;;;;;;4972790;28;20027;-73
2021/11/24 04:58:28;;;;;;;25.67;12.17;;;;;;;;;;4974254;28;20122;-73
2021/11/24 05:00:54;;;;;;;25.97;11.77;;;;;;;;;;4974039;28;20391;-74
2021/11/24 05:03:20;;;;;;;33.03;12.10;;;;;;;;;;4972207;28;20038;-74
2021/11/24 05:05:45;;;;;;;24.23;11.17;;;;;;;;;;4973462;28;20097;-74
2021/11/24 05:08:11;;;;;;;23.07;11.57;;;;;;;;;;4973768;28;20027;-74
2021/11/24 05:10:37;;;;;;;28.57;12.47;;;;;;;;;;4973944;28;20023;-74
2021/11/24 05:13:05;;;;;;;20.27;11.10;;;;;;;;;;4972478;28;20113;-74
2021/11/24 05:15:32;;;;;;;24.43;10.87;;;;;;;;;;4973445;28;20034;-74
2021/11/24 05:18:05;;;;;;;26.97;11.43;;;;;;;;;;4972773;28;20064;-73
2021/11/24 05:20:32;;;;;;;29.07;12.07;;;;;;;;;;4972136;28;20109;-74
2021/11/24 05:23:00;;;;;;;28.93;11.40;;;;;;;;;;4973202;28;20030;-75
2021/11/24 05:25:27;;;;;;;19.40;10.23;;;;;;;;;;4973355;28;20078;-73
2021/11/24 05:27:54;;;;;;;25.47;11.27;;;;;;;;;;4973693;28;20023;-74
2021/11/24 05:30:20;;;;;;;25.87;11.27;;;;;;;;;;4973552;28;20483;-74
2021/11/24 05:32:46;;;;;;;27.87;11.17;;;;;;;;;;4973417;28;20038;-73
2021/11/24 05:35:12;;;;;;;21.30;10.30;;;;;;;;;;4971938;28;20027;-73
2021/11/24 05:37:39;;;;;;;30.30;14.83;;;;;;;;;;4972034;28;20058;-73
2021/11/24 05:40:05;;;;;;;27.13;10.83;;;;;;;;;;4972147;28;20023;-73
2021/11/24 05:42:31;;;;;;;19.27;10.50;;;;;;;;;;4971667;28;20031;-73
2021/11/24 05:45:11;;;;;;;23.83;11.17;;;;;;;;;;4972109;28;20047;-74
2021/11/24 05:50:18;;;;;;;19.48;10.20;;;;;;;;;;4973136;28;20391;-73
2021/11/24 05:52:44;;;;;;;24.77;11.70;;;;;;;;;;4971992;28;20025;-74
2021/11/24 05:55:09;;;;;;;29.10;12.00;;;;;;;;;;4972353;28;20031;-74
2021/11/24 05:57:35;;;;;;;26.53;11.13;;;;;;;;;;4972933;28;20023;-74
2021/11/24 06:00:01;;;;;;;22.27;11.37;;;;;;;;;;4972073;28;20027;-74
2021/11/24 06:02:26;;;;;;;24.00;10.37;;;;;;;;;;4972838;28;20058;-73
2021/11/24 06:04:52;;;;;;;21.97;10.47;;;;;;;;;;4971359;28;20117;-74
2021/11/24 06:07:17;;;;;;;24.97;11.70;;;;;;;;;;4971217;28;20026;-74
2021/11/24 06:09:43;;;;;;;20.77;10.30;;;;;;;;;;4971418;28;20518;-73
2021/11/24 06:12:08;;;;;;;21.67;10.70;;;;;;;;;;4972597;28;20126;-73
2021/11/24 06:14:34;;;;;;;20.00;11.07;;;;;;;;;;4972488;28;20035;-73
2021/11/24 06:16:59;;;;;;;23.47;10.43;;;;;;;;;;4972448;28;20530;-75
2021/11/24 06:19:25;;;;;;;21.47;10.97;;;;;;;;;;4963482;28;20026;-74
2021/11/24 06:21:51;;;;;;;20.27;11.13;;;;;;;;;;4956226;28;20043;-74
2021/11/24 06:24:16;;;;;;;25.50;11.30;;;;;;;;;;4967903;28;20488;-75
2021/11/24 06:26:42;;;;;;;27.63;11.73;;;;;;;;;;4971700;28;20026;-73
2021/11/24 06:29:08;;;;;;;21.17;10.63;;;;;;;;;;4969152;28;20054;-73
2021/11/24 06:31:33;;;;;;;23.53;11.17;;;;;;;;;;4970273;28;20030;-74
2021/11/24 06:33:59;;;;;;;22.70;11.00;;;;;;;;;;4985408;28;20038;-75
2021/11/24 06:36:25;;;;;;;25.10;11.20;;;;;;;;;;4970638;28;20027;-74
2021/11/24 06:38:52;;;;;;;28.20;11.97;;;;;;;;;;4986999;28;20027;-73
2021/11/24 06:41:18;;;;;;;42.07;20.23;;;;;;;;;;4981823;28;20038;-74
2021/11/24 06:43:43;;;;;;;24.23;12.50;;;;;;;;;;4972206;28;20031;-74
2021/11/24 06:46:09;;;;;;;27.73;10.17;;;;;;;;;;4972050;28;20027;-74
2021/11/24 06:48:35;;;;;;;29.70;12.27;;;;;;;;;;4969447;28;20030;-74
2021/11/24 06:51:02;;;;;;;22.07;11.30;;;;;;;;;;4959911;28;20121;-74
2021/11/24 06:53:28;;;;;;;22.63;11.70;;;;;;;;;;4969722;28;20029;-74
2021/11/24 06:55:54;;;;;;;19.63;10.50;;;;;;;;;;4953370;28;20126;-73
2021/11/24 06:58:19;;;;;;;19.97;11.23;;;;;;;;;;4970175;28;20022;-73
2021/11/24 07:00:45;;;;;;;32.43;11.33;;;;;;;;;;4970232;28;20046;-74
2021/11/24 07:03:11;;;;;;;20.40;11.10;;;;;;;;;;4969289;28;20065;-73
2021/11/24 07:05:37;;;;;;;25.20;12.17;;;;;;;;;;4965441;28;20491;-76
2021/11/24 07:08:03;;;;;;;22.50;11.80;;;;;;;;;;4967575;28;20058;-74
2021/11/24 07:10:30;;;;;;;22.70;10.30;;;;;;;;;;4970030;28;20456;-74
2021/11/24 07:12:55;;;;;;;18.27;10.53;;;;;;;;;;4971379;28;20405;-75
2021/11/24 07:15:21;;;;;;;18.53;10.47;;;;;;;;;;4969225;28;20445;-75
2021/11/24 07:17:47;;;;;;;22.53;10.53;;;;;;;;;;4964501;28;20133;-74
2021/11/24 07:20:13;;;;;;;20.17;10.57;;;;;;;;;;4959858;28;20026;-73
2021/11/24 07:22:39;;;;;;;23.37;10.73;;;;;;;;;;4968527;28;20069;-75
2021/11/24 07:25:06;;;;;;;20.33;11.43;;;;;;;;;;4967774;28;20054;-74
2021/11/24 07:27:32;;;;;;;26.00;10.80;;;;;;;;;;4966677;28;20031;-74
2021/11/24 07:29:59;;;;;;;21.03;10.20;;;;;;;;;;4964089;28;20593;-74
2021/11/24 07:32:25;;;;;;;25.60;11.17;;;;;;;;;;4965347;28;20077;-75
2021/11/24 07:34:53;;;;;;;25.60;10.73;;;;;;;;;;4964414;28;20133;-73
2021/11/24 07:37:19;;;;;;;23.30;11.87;;;;;;;;;;4965510;28;20041;-75
2021/11/24 07:39:48;;;;;;;47.73;17.97;;;;;;;;;;4966231;28;20057;-73
2021/11/24 07:42:17;;;;;;;23.10;11.10;;;;;;;;;;4965552;28;20054;-74
2021/11/24 07:44:43;;;;;;;21.20;10.03;;;;;;;;;;4966692;28;20037;-74
2021/11/24 07:47:11;;;;;;;21.73;10.43;;;;;;;;;;4967697;28;20039;-74
2021/11/24 07:49:38;;;;;;;23.13;13.67;;;;;;;;;;4964141;28;20424;-75
2021/11/24 07:52:09;;;;;;;23.70;11.57;;;;;;;;;;4956131;28;20035;-75
2021/11/24 07:54:35;;;;;;;21.77;9.87;;;;;;;;;;4959425;28;20803;-73
2021/11/24 07:57:01;;;;;;;51.70;23.60;;;;;;;;;;4960731;28;20043;-73
2021/11/24 07:59:27;;;;;;;24.87;12.93;;;;;;;;;;4963040;28;20391;-74
2021/11/24 08:01:56;;;;;;;21.47;10.67;;;;;;;;;;4961843;28;20037;-74
2021/11/24 08:04:22;;;;;;;22.33;9.97;;;;;;;;;;4961565;28;20066;-75
2021/11/24 08:06:51;;;;;;;23.73;10.57;;;;;;;;;;4962200;28;20507;-73
2021/11/24 08:09:17;;;;;;;30.77;11.47;;;;;;;;;;4976257;28;20665;-75
2021/11/24 08:11:43;;;;;;;27.20;10.63;;;;;;;;;;4959486;28;20054;-74
2021/11/24 08:14:10;;;;;;;18.10;10.20;;;;;;;;;;4961314;28;20023;-74
2021/11/24 08:16:36;;;;;;;18.43;9.80;;;;;;;;;;4960694;28;20042;-73
2021/11/24 08:19:05;;;;;;;25.80;11.80;;;;;;;;;;4959565;28;20043;-74
2021/11/24 08:21:31;;;;;;;25.30;11.07;;;;;;;;;;4963096;28;20022;-73
2021/11/24 08:23:57;;;;;;;32.30;11.40;;;;;;;;;;4962940;28;20030;-73
2021/11/24 08:26:23;;;;;;;24.20;11.60;;;;;;;;;;4962783;28;20041;-74
2021/11/24 08:28:49;;;;;;;29.63;12.40;;;;;;;;;;4959975;28;20030;-73
2021/11/24 08:31:16;;;;;;;30.13;12.07;;;;;;;;;;4962124;28;20035;-73
2021/11/24 08:33:41;;;;;;;27.10;11.83;;;;;;;;;;4962214;28;20130;-74
2021/11/24 08:36:08;;;;;;;29.87;14.60;;;;;;;;;;4962879;28;20902;-74
2021/11/24 08:38:34;;;;;;;40.63;13.83;;;;;;;;;;4960255;28;20065;-73
2021/11/24 08:41:03;;;;;;;25.70;12.27;;;;;;;;;;4962401;28;20038;-75
2021/11/24 08:43:29;;;;;;;33.17;13.30;;;;;;;;;;4963551;28;20100;-74
2021/11/24 08:45:55;;;;;;;25.90;13.07;;;;;;;;;;4963533;28;20292;-74
2021/11/24 08:48:22;;;;;;;26.63;13.00;;;;;;;;;;4956493;28;20240;-74
2021/11/24 08:50:47;;;;;;;29.20;13.60;;;;;;;;;;4961219;28;20027;-73
2021/11/24 08:53:13;;;;;;;35.03;14.23;;;;;;;;;;4962860;28;20030;-73
2021/11/24 08:55:39;;;;;;;29.90;13.17;;;;;;;;;;4964995;28;20030;-75
2021/11/24 08:58:05;;;;;;;32.20;13.57;;;;;;;;;;4963950;28;20023;-73
2021/11/24 09:00:32;;;;;;;30.80;13.43;;;;;;;;;;4965536;28;20137;-74
2021/11/24 09:02:57;;;;;;;30.00;12.87;;;;;;;;;;4962388;28;20086;-73
2021/11/24 09:05:23;;;;;;;22.27;11.10;;;;;;;;;;4967055;28;20038;-73
2021/11/24 09:07:50;;;;;;;30.03;12.87;;;;;;;;;;4966025;28;20097;-75
2021/11/24 09:10:16;;;;;;;26.30;12.10;;;;;;;;;;4964273;28;20042;-74
2021/11/24 09:12:42;;;;;;;28.83;12.47;;;;;;;;;;4964678;28;20034;-73
2021/11/24 09:15:08;;;;;;;30.00;12.63;;;;;;;;;;4965317;28;20371;-73
2021/11/24 09:17:33;;;;;;;23.83;11.77;;;;;;;;;;4964840;28;20034;-74
2021/11/24 09:19:59;;;;;;;27.70;11.93;;;;;;;;;;4965976;28;20030;-73
2021/11/24 09:22:25;;;;;;;21.73;10.73;;;;;;;;;;4962155;28;20199;-73
2021/11/24 09:24:54;;;;;;;22.27;11.83;;;;;;;;;;4963142;28;20407;-73
2021/11/24 09:27:29;;;;;;;18.37;9.73;;;;;;;;;;4963111;28;20035;-73
2021/11/24 09:29:56;;;;;;;21.97;11.10;;;;;;;;;;4966863;28;20058;-73
2021/11/24 09:32:22;;;;;;;25.07;11.97;;;;;;;;;;4964033;28;20429;-73
2021/11/24 09:34:47;;;;;;;18.40;10.87;;;;;;;;;;4966085;28;20026;-74
2021/11/24 09:37:13;;;;;;;25.07;12.40;;;;;;;;;;4961501;28;20367;-73
2021/11/24 09:39:39;;;;;;;24.37;11.63;;;;;;;;;;4958418;28;21746;-73
2021/11/24 09:42:05;;;;;;;42.90;12.20;;;;;;;;;;4961294;28;20046;-73
2021/11/24 09:44:32;;;;;;;22.07;11.43;;;;;;;;;;4953549;28;20365;-73
2021/11/24 09:46:58;;;;;;;25.17;10.57;;;;;;;;;;4963630;28;20414;-72
2021/11/24 09:49:26;;;;;;;25.20;11.43;;;;;;;;;;4965817;28;20050;-73
2021/11/24 09:51:53;;;;;;;23.77;12.13;;;;;;;;;;4966405;28;20035;-74
2021/11/24 09:54:19;;;;;;;22.43;11.27;;;;;;;;;;4964992;28;20065;-74
2021/11/24 09:56:45;;;;;;;21.97;11.87;;;;;;;;;;4965433;28;20411;-74
2021/11/24 09:59:12;;;;;;;27.33;11.10;;;;;;;;;;4979047;28;20035;-74
2021/11/24 10:01:38;;;;;;;65.73;28.73;;;;;;;;;;4967835;28;20031;-73
2021/11/24 10:04:08;;;;;;;23.07;11.17;;;;;;;;;;4960605;28;20836;-74
2021/11/24 10:06:37;;;;;;;18.97;12.40;;;;;;;;;;4965408;28;20062;-74
2021/11/24 10:09:03;;;;;;;20.83;11.50;;;;;;;;;;4934181;28;20050;-73
2021/11/24 10:11:30;;;;;;;22.23;11.23;;;;;;;;;;4946104;28;20027;-73
2021/11/24 10:13:55;;;;;;;20.00;11.57;;;;;;;;;;4946062;28;20027;-74
2021/11/24 10:16:25;;;;;;;21.80;10.93;;;;;;;;;;4947085;28;20035;-73
2021/11/24 10:19:09;;;;;;;24.33;10.93;;;;;;;;;;4945930;28;20031;-74
2021/11/24 10:21:51;;;;;;;17.00;10.30;;;;;;;;;;4947166;28;20111;-74
2021/11/24 10:24:26;;;;;;;15.68;9.35;;;;;;;;;;4943643;28;20035;-74
2021/11/24 10:26:52;;;;;;;20.77;10.00;;;;;;;;;;4945683;28;20163;-73
2021/11/24 10:29:18;;;;;;;15.60;10.30;;;;;;;;;;4946267;28;20492;-74
2021/11/24 10:32:17;;;;;;;15.47;8.73;;;;;;;;;;4945921;28;20114;-73
2021/11/24 10:34:44;;;;;;;20.80;10.50;;;;;;;;;;4942841;28;20062;-73
2021/11/24 10:37:16;;;;;;;17.20;8.67;;;;;;;;;;4942616;28;20043;-74
2021/11/24 10:39:53;;;;;;;17.95;9.80;;;;;;;;;;4940272;28;20132;-74
2021/11/24 10:42:25;;;;;;;19.37;9.73;;;;;;;;;;4944080;28;20118;-74
2021/11/24 10:45:06;;;;;;;19.27;12.05;;;;;;;;;;4942198;28;20035;-74
2021/11/24 10:47:32;;;;;;;18.17;8.93;;;;;;;;;;4940667;28;20047;-73
2021/11/24 10:50:00;;;;;;;14.97;10.17;;;;;;;;;;4942977;28;20042;-75
2021/11/24 10:52:31;;;;;;;19.60;10.90;;;;;;;;;;4943448;28;20043;-74
2021/11/24 10:54:59;;;;;;;19.47;10.80;;;;;;;;;;4942323;28;20101;-74
2021/11/24 10:57:26;;;;;;;19.37;10.67;;;;;;;;;;4941346;28;20158;-74
2021/11/24 10:59:57;;;;;;;18.63;9.47;;;;;;;;;;4943953;28;20043;-75
2021/11/24 11:02:33;;;;;;;21.77;11.75;;;;;;;;;;4941931;28;20031;-73
2021/11/24 11:05:02;;;;;;;21.60;14.00;;;;;;;;;;4941194;28;20035;-74
2021/11/24 11:07:29;;;;;;;20.70;10.23;;;;;;;;;;4940480;28;20109;-74
2021/11/24 11:10:07;;;;;;;22.97;10.60;;;;;;;;;;4943100;28;20174;-74
2021/11/24 11:12:35;;;;;;;26.97;13.20;;;;;;;;;;4943763;29;20070;-74
2021/11/24 11:15:23;;;;;;;17.83;11.23;;;;;;;;;;4937173;28;20039;-74
2021/11/24 11:18:18;;;;;;;18.93;10.87;;;;;;;;;;4939943;28;20182;-75
2021/11/24 11:21:11;;;;;;;20.07;10.87;;;;;;;;;;4956071;28;20034;-74
2021/11/24 11:23:40;;;;;;;24.33;11.47;;;;;;;;;;4942962;28;20062;-73
2021/11/24 11:26:07;;;;;;;18.60;10.80;;;;;;;;;;4945152;28;20031;-76
2021/11/24 11:28:44;;;;;;;20.03;11.43;;;;;;;;;;4940275;28;20039;-74
2021/11/24 11:31:12;;;;;;;15.80;9.93;;;;;;;;;;4940598;29;20070;-72
2021/11/24 11:33:48;;;;;;;13.00;9.13;;;;;;;;;;4945810;28;20054;-75
2021/11/24 11:36:16;;;;;;;11.80;7.53;;;;;;;;;;4958215;28;20063;-75
2021/11/24 11:38:53;;;;;;;12.83;8.63;;;;;;;;;;4941544;28;20038;-74
2021/11/24 11:41:25;;;;;;;15.53;8.50;;;;;;;;;;4944032;29;20037;-74
2021/11/24 11:43:52;;;;;;;16.13;8.88;;;;;;;;;;4948520;28;20408;-74
2021/11/24 11:46:32;;;;;;;19.37;9.97;;;;;;;;;;4943463;28;20039;-74
2021/11/24 11:49:07;;;;;;;14.63;8.20;;;;;;;;;;4941432;29;20035;-74
2021/11/24 11:51:38;;;;;;;14.23;8.53;;;;;;;;;;4944560;28;20031;-74
2021/11/24 11:54:35;;;;;;;10.37;6.80;;;;;;;;;;4944309;28;20019;-74
2021/11/24 11:57:04;;;;;;;8.83;5.97;;;;;;;;;;4939464;29;20541;-75
2021/11/24 11:59:34;;;;;;;8.37;6.07;;;;;;;;;;4939831;29;20030;-74
2021/11/24 12:02:04;;;;;;;13.60;8.67;;;;;;;;;;4944769;28;20027;-74
2021/11/24 12:04:46;;;;;;;10.03;6.07;;;;;;;;;;4943428;29;20035;-75
2021/11/24 12:07:17;;;;;;;8.55;6.57;;;;;;;;;;4942440;28;20035;-73
2021/11/24 12:09:48;;;;;;;7.90;5.85;;;;;;;;;;4942497;28;20046;-74
2021/11/24 12:12:19;;;;;;;6.85;5.35;;;;;;;;;;4943160;28;20054;-73
2021/11/24 12:15:28;;;;;;;6.75;5.13;;;;;;;;;;4943400;28;20766;-73
2021/11/24 12:18:09;;;;;;;10.97;4.90;;;;;;;;;;4941600;29;20027;-74
2021/11/24 12:20:40;;;;;;;5.82;5.05;;;;;;;;;;4942278;29;20496;-73
2021/11/24 12:23:12;;;;;;;7.83;5.80;;;;;;;;;;4942483;29;20042;-73
2021/11/24 12:25:39;;;;;;;6.20;4.23;;;;;;;;;;4942633;28;20031;-73
2021/11/24 12:28:09;;;;;;;4.83;3.87;;;;;;;;;;4944637;29;20027;-73
2021/11/24 12:30:46;;;;;;;6.50;5.00;;;;;;;;;;4947069;28;20133;-73
2021/11/24 12:33:29;;;;;;;9.97;5.10;;;;;;;;;;4944643;29;20511;-74
2021/11/24 12:36:00;;;;;;;7.73;5.93;;;;;;;;;;4946457;29;20116;-75
2021/11/24 12:38:25;;;;;;;9.03;5.30;;;;;;;;;;4943652;29;20066;-74
2021/11/24 12:40:53;;;;;;;11.07;5.60;;;;;;;;;;4946618;28;20487;-74
2021/11/24 12:43:22;;;;;;;5.00;4.50;;;;;;;;;;4945885;28;20166;-74
2021/11/24 12:46:06;;;;;;;8.50;6.67;;;;;;;;;;4945872;28;20288;-74
2021/11/24 12:48:39;;;;;;;5.40;4.60;;;;;;;;;;4957715;28;20050;-74
2021/11/24 12:51:05;;;;;;;8.50;5.43;;;;;;;;;;4943929;28;20031;-74
2021/11/24 12:53:37;;;;;;;10.73;6.37;;;;;;;;;;4943936;29;20027;-74
2021/11/24 12:56:13;;;;;;;8.10;6.05;;;;;;;;;;4947724;28;20039;-74
2021/11/24 12:58:41;;;;;;;15.93;7.67;;;;;;;;;;4942157;29;20039;-76
2021/11/24 13:01:17;;;;;;;8.60;6.50;;;;;;;;;;4945198;29;20094;-75
2021/11/24 13:03:45;;;;;;;8.97;6.47;;;;;;;;;;4943520;29;20555;-74
2021/11/24 13:06:11;;;;;;;8.10;6.07;;;;;;;;;;4945834;29;20037;-74
2021/11/24 13:08:37;;;;;;;8.43;5.90;;;;;;;;;;4940652;28;20047;-74
2021/11/24 13:11:09;;;;;;;6.63;5.77;;;;;;;;;;4944180;28;20372;-75
2021/11/24 13:13:36;;;;;;;8.73;5.80;;;;;;;;;;4944505;29;20769;-74
2021/11/24 13:16:19;;;;;;;7.93;5.87;;;;;;;;;;4946095;29;20031;-75
2021/11/24 13:18:59;;;;;;;9.70;6.40;;;;;;;;;;4941301;28;20121;-73
2021/11/24 13:21:26;;;;;;;12.53;8.20;;;;;;;;;;4944622;28;20071;-74
2021/11/24 13:24:03;;;;;;;10.50;6.77;;;;;;;;;;4944398;28;20115;-75
2021/11/24 13:26:28;;;;;;;9.37;7.63;;;;;;;;;;4944839;29;20035;-75
2021/11/24 13:28:55;;;;;;;8.87;6.83;;;;;;;;;;4941248;28;20613;-74
2021/11/24 13:31:21;;;;;;;8.67;5.87;;;;;;;;;;4945095;28;20042;-75
2021/11/24 13:33:47;;;;;;;11.17;6.93;;;;;;;;;;4944741;29;20141;-75
2021/11/24 13:36:14;;;;;;;9.17;5.43;;;;;;;;;;4946015;28;20035;-74
2021/11/24 13:38:43;;;;;;;11.50;7.10;;;;;;;;;;4940729;28;20822;-74
2021/11/24 13:41:18;;;;;;;11.13;7.33;;;;;;;;;;4940425;29;20090;-74
2021/11/24 13:44:01;;;;;;;13.77;8.00;;;;;;;;;;4944903;29;20035;-73
2021/11/24 13:46:48;;;;;;;12.10;7.77;;;;;;;;;;4949520;29;20428;-74
2021/11/24 13:49:25;;;;;;;11.73;8.47;;;;;;;;;;4938474;29;20325;-74
2021/11/24 13:52:04;;;;;;;13.13;8.80;;;;;;;;;;4947386;29;20043;-74
2021/11/24 13:54:37;;;;;;;10.77;7.13;;;;;;;;;;4946020;29;20038;-76
2021/11/24 13:57:04;;;;;;;11.87;7.30;;;;;;;;;;4947819;28;20515;-75
2021/11/24 13:59:33;;;;;;;9.43;6.77;;;;;;;;;;4949047;29;20041;-74
2021/11/24 14:02:11;;;;;;;10.00;7.67;;;;;;;;;;4949915;29;20034;-75
2021/11/24 14:04:42;;;;;;;14.67;7.60;;;;;;;;;;4947490;29;20123;-75
2021/11/24 14:07:14;;;;;;;9.55;7.47;;;;;;;;;;4949182;28;20493;-75
2021/11/24 14:09:39;;;;;;;13.73;7.93;;;;;;;;;;4944241;28;20043;-75
2021/11/24 14:12:26;;;;;;;9.37;7.73;;;;;;;;;;4953516;28;20395;-75
2021/11/24 14:14:58;;;;;;;12.67;7.37;;;;;;;;;;4953867;28;20383;-75
2021/11/24 14:17:38;;;;;;;13.10;8.13;;;;;;;;;;4943826;29;20027;-74
2021/11/24 14:20:08;;;;;;;13.80;8.30;;;;;;;;;;4948419;28;20038;-75
2021/11/24 14:22:36;;;;;;;10.33;8.20;;;;;;;;;;4947181;28;20507;-74
2021/11/24 14:25:03;;;;;;;10.63;7.90;;;;;;;;;;4949955;28;20537;-74
2021/11/24 14:27:28;;;;;;;11.33;7.77;;;;;;;;;;4949614;28;20110;-73
2021/11/24 14:29:54;;;;;;;10.73;7.33;;;;;;;;;;4945400;28;20023;-74
2021/11/24 14:32:19;;;;;;;10.60;7.93;;;;;;;;;;4948057;29;20074;-75